sensor_id;sensor_type;location;lat;lon;timestamp;P1;durP1;ratioP1;P2;durP2;ratioP2
1775;SDS011;885;42.626;23.200;2022-08-21T00:00:44;9.57;;;5.90;;
1775;SDS011;885;42.626;23.200;2022-08-21T00:03:12;5.87;;;5.03;;
1775;SDS011;885;42.626;23.200;2022-08-21T00:05:40;8.90;;;5.67;;
1775;SDS011;885;42.626;23.200;2022-08-21T00:08:12;11.60;;;5.43;;
1775;SDS011;885;42.626;23.200;2022-08-21T00:10:40;6.60;;;5.30;;
1775;SDS011;885;42.626;23.200;2022-08-21T00:13:07;7.33;;;6.10;;
1775;SDS011;885;42.626;23.200;2022-08-21T00:15:35;10.20;;;6.57;;
1775;SDS011;885;42.626;23.200;2022-08-21T00:18:05;5.60;;;5.07;;
1775;SDS011;885;42.626;23.200;2022-08-21T00:20:34;8.80;;;5.10;;
1775;SDS011;885;42.626;23.200;2022-08-21T00:23:01;8.70;;;5.20;;
1775;SDS011;885;42.626;23.200;2022-08-21T00:25:28;6.87;;;4.77;;
1775;SDS011;885;42.626;23.200;2022-08-21T00:27:56;6.00;;;5.40;;
1775;SDS011;885;42.626;23.200;2022-08-21T00:30:23;9.13;;;6.03;;
1775;SDS011;885;42.626;23.200;2022-08-21T00:32:52;9.97;;;6.13;;
1775;SDS011;885;42.626;23.200;2022-08-21T00:35:23;7.80;;;5.80;;
1775;SDS011;885;42.626;23.200;2022-08-21T00:37:52;9.37;;;7.00;;
1775;SDS011;885;42.626;23.200;2022-08-21T00:40:22;7.13;;;5.30;;
1775;SDS011;885;42.626;23.200;2022-08-21T00:42:51;4.90;;;4.27;;
1775;SDS011;885;42.626;23.200;2022-08-21T00:45:18;9.43;;;5.00;;
1775;SDS011;885;42.626;23.200;2022-08-21T00:47:45;6.00;;;4.03;;
1775;SDS011;885;42.626;23.200;2022-08-21T00:50:12;6.57;;;4.73;;
1775;SDS011;885;42.626;23.200;2022-08-21T00:52:41;8.13;;;4.73;;
1775;SDS011;885;42.626;23.200;2022-08-21T00:55:09;5.53;;;4.93;;
1775;SDS011;885;42.626;23.200;2022-08-21T00:57:39;8.40;;;4.17;;
1775;SDS011;885;42.626;23.200;2022-08-21T01:00:11;7.73;;;5.00;;
1775;SDS011;885;42.626;23.200;2022-08-21T01:02:40;9.83;;;4.53;;
1775;SDS011;885;42.626;23.200;2022-08-21T01:05:07;6.40;;;4.23;;
1775;SDS011;885;42.626;23.200;2022-08-21T01:07:35;6.00;;;4.50;;
1775;SDS011;885;42.626;23.200;2022-08-21T01:10:05;10.33;;;4.30;;
1775;SDS011;885;42.626;23.200;2022-08-21T01:12:33;6.03;;;4.77;;
1775;SDS011;885;42.626;23.200;2022-08-21T01:15:01;9.43;;;6.13;;
1775;SDS011;885;42.626;23.200;2022-08-21T01:17:29;7.13;;;4.23;;
1775;SDS011;885;42.626;23.200;2022-08-21T01:19:58;6.00;;;4.67;;
1775;SDS011;885;42.626;23.200;2022-08-21T01:22:26;9.53;;;5.20;;
1775;SDS011;885;42.626;23.200;2022-08-21T01:24:53;4.77;;;4.30;;
1775;SDS011;885;42.626;23.200;2022-08-21T01:27:20;10.50;;;5.40;;
1775;SDS011;885;42.626;23.200;2022-08-21T01:29:49;8.23;;;4.07;;
1775;SDS011;885;42.626;23.200;2022-08-21T01:32:20;6.97;;;4.30;;
1775;SDS011;885;42.626;23.200;2022-08-21T01:34:48;6.30;;;4.10;;
1775;SDS011;885;42.626;23.200;2022-08-21T01:37:16;7.73;;;4.47;;
1775;SDS011;885;42.626;23.200;2022-08-21T01:39:46;6.23;;;4.27;;
1775;SDS011;885;42.626;23.200;2022-08-21T01:42:13;9.37;;;4.80;;
1775;SDS011;885;42.626;23.200;2022-08-21T01:44:40;6.93;;;4.50;;
1775;SDS011;885;42.626;23.200;2022-08-21T01:47:08;7.10;;;4.13;;
1775;SDS011;885;42.626;23.200;2022-08-21T01:49:36;5.10;;;4.23;;
1775;SDS011;885;42.626;23.200;2022-08-21T01:52:05;6.20;;;3.80;;
1775;SDS011;885;42.626;23.200;2022-08-21T01:54:32;4.63;;;4.00;;
1775;SDS011;885;42.626;23.200;2022-08-21T01:57:00;9.77;;;5.13;;
1775;SDS011;885;42.626;23.200;2022-08-21T01:59:29;5.80;;;4.50;;
1775;SDS011;885;42.626;23.200;2022-08-21T02:01:56;5.70;;;4.13;;
1775;SDS011;885;42.626;23.200;2022-08-21T02:04:22;5.37;;;3.90;;
1775;SDS011;885;42.626;23.200;2022-08-21T02:06:50;8.00;;;5.03;;
1775;SDS011;885;42.626;23.200;2022-08-21T02:09:17;9.50;;;4.43;;
1775;SDS011;885;42.626;23.200;2022-08-21T02:11:44;6.67;;;3.73;;
1775;SDS011;885;42.626;23.200;2022-08-21T02:14:13;3.63;;;3.30;;
1775;SDS011;885;42.626;23.200;2022-08-21T02:16:42;5.60;;;3.60;;
1775;SDS011;885;42.626;23.200;2022-08-21T02:19:10;5.00;;;3.43;;
1775;SDS011;885;42.626;23.200;2022-08-21T02:21:38;6.10;;;3.50;;
1775;SDS011;885;42.626;23.200;2022-08-21T02:24:05;4.73;;;2.97;;
1775;SDS011;885;42.626;23.200;2022-08-21T02:26:34;11.23;;;5.00;;
1775;SDS011;885;42.626;23.200;2022-08-21T02:29:00;4.43;;;3.63;;
1775;SDS011;885;42.626;23.200;2022-08-21T02:31:29;4.10;;;2.87;;
1775;SDS011;885;42.626;23.200;2022-08-21T02:33:56;6.93;;;3.80;;
1775;SDS011;885;42.626;23.200;2022-08-21T02:36:23;4.83;;;2.87;;
1775;SDS011;885;42.626;23.200;2022-08-21T02:38:50;3.83;;;2.73;;
1775;SDS011;885;42.626;23.200;2022-08-21T02:41:17;7.37;;;3.67;;
1775;SDS011;885;42.626;23.200;2022-08-21T02:43:47;7.43;;;3.00;;
1775;SDS011;885;42.626;23.200;2022-08-21T02:46:15;4.70;;;3.20;;
1775;SDS011;885;42.626;23.200;2022-08-21T02:48:45;4.37;;;3.23;;
1775;SDS011;885;42.626;23.200;2022-08-21T02:51:13;5.80;;;4.37;;
1775;SDS011;885;42.626;23.200;2022-08-21T02:53:42;4.73;;;3.20;;
1775;SDS011;885;42.626;23.200;2022-08-21T02:56:10;6.73;;;3.90;;
1775;SDS011;885;42.626;23.200;2022-08-21T02:58:41;11.67;;;4.10;;
1775;SDS011;885;42.626;23.200;2022-08-21T03:01:09;6.47;;;3.80;;
1775;SDS011;885;42.626;23.200;2022-08-21T03:03:38;4.23;;;3.13;;
1775;SDS011;885;42.626;23.200;2022-08-21T03:06:08;5.33;;;3.03;;
1775;SDS011;885;42.626;23.200;2022-08-21T03:08:37;4.93;;;3.57;;
1775;SDS011;885;42.626;23.200;2022-08-21T03:11:05;6.77;;;3.40;;
1775;SDS011;885;42.626;23.200;2022-08-21T03:13:32;6.00;;;3.40;;
1775;SDS011;885;42.626;23.200;2022-08-21T03:15:59;4.83;;;2.80;;
1775;SDS011;885;42.626;23.200;2022-08-21T03:18:26;3.03;;;2.27;;
1775;SDS011;885;42.626;23.200;2022-08-21T03:20:53;4.20;;;2.80;;
1775;SDS011;885;42.626;23.200;2022-08-21T03:23:21;6.30;;;2.93;;
1775;SDS011;885;42.626;23.200;2022-08-21T03:25:48;14.53;;;3.10;;
1775;SDS011;885;42.626;23.200;2022-08-21T03:28:17;4.20;;;2.30;;
1775;SDS011;885;42.626;23.200;2022-08-21T03:30:47;5.00;;;3.37;;
1775;SDS011;885;42.626;23.200;2022-08-21T03:33:15;8.23;;;3.07;;
1775;SDS011;885;42.626;23.200;2022-08-21T03:35:43;4.77;;;2.70;;
1775;SDS011;885;42.626;23.200;2022-08-21T03:38:12;5.37;;;2.53;;
1775;SDS011;885;42.626;23.200;2022-08-21T03:40:40;3.13;;;2.60;;
1775;SDS011;885;42.626;23.200;2022-08-21T03:43:08;12.03;;;3.20;;
1775;SDS011;885;42.626;23.200;2022-08-21T03:45:35;7.50;;;2.90;;
1775;SDS011;885;42.626;23.200;2022-08-21T03:48:03;4.67;;;3.40;;
1775;SDS011;885;42.626;23.200;2022-08-21T03:50:32;7.17;;;3.93;;
1775;SDS011;885;42.626;23.200;2022-08-21T03:53:01;6.83;;;4.00;;
1775;SDS011;885;42.626;23.200;2022-08-21T03:55:29;5.53;;;3.80;;
1775;SDS011;885;42.626;23.200;2022-08-21T03:57:57;3.33;;;3.03;;
1775;SDS011;885;42.626;23.200;2022-08-21T04:00:24;4.70;;;3.40;;
1775;SDS011;885;42.626;23.200;2022-08-21T04:02:51;8.53;;;3.17;;
1775;SDS011;885;42.626;23.200;2022-08-21T04:05:18;3.80;;;2.40;;
1775;SDS011;885;42.626;23.200;2022-08-21T04:07:53;3.20;;;2.70;;
1775;SDS011;885;42.626;23.200;2022-08-21T04:10:21;5.97;;;3.20;;
1775;SDS011;885;42.626;23.200;2022-08-21T04:12:50;4.27;;;3.10;;
1775;SDS011;885;42.626;23.200;2022-08-21T04:15:20;6.20;;;2.83;;
1775;SDS011;885;42.626;23.200;2022-08-21T04:17:47;5.60;;;3.13;;
1775;SDS011;885;42.626;23.200;2022-08-21T04:20:14;5.10;;;2.83;;
1775;SDS011;885;42.626;23.200;2022-08-21T04:22:41;6.47;;;3.20;;
1775;SDS011;885;42.626;23.200;2022-08-21T04:25:09;5.50;;;3.07;;
1775;SDS011;885;42.626;23.200;2022-08-21T04:27:36;4.97;;;4.07;;
1775;SDS011;885;42.626;23.200;2022-08-21T04:30:05;8.40;;;4.00;;
1775;SDS011;885;42.626;23.200;2022-08-21T04:32:35;7.37;;;3.20;;
1775;SDS011;885;42.626;23.200;2022-08-21T04:35:04;8.70;;;3.43;;
1775;SDS011;885;42.626;23.200;2022-08-21T04:37:33;4.67;;;3.53;;
1775;SDS011;885;42.626;23.200;2022-08-21T04:40:00;7.33;;;3.20;;
1775;SDS011;885;42.626;23.200;2022-08-21T04:42:28;5.93;;;3.30;;
1775;SDS011;885;42.626;23.200;2022-08-21T04:44:55;8.03;;;3.70;;
1775;SDS011;885;42.626;23.200;2022-08-21T04:47:22;6.33;;;3.60;;
1775;SDS011;885;42.626;23.200;2022-08-21T04:49:51;6.47;;;3.57;;
1775;SDS011;885;42.626;23.200;2022-08-21T04:52:19;7.37;;;3.10;;
1775;SDS011;885;42.626;23.200;2022-08-21T04:54:48;4.30;;;3.00;;
1775;SDS011;885;42.626;23.200;2022-08-21T04:57:18;5.20;;;3.13;;
1775;SDS011;885;42.626;23.200;2022-08-21T04:59:46;6.53;;;3.77;;
1775;SDS011;885;42.626;23.200;2022-08-21T05:02:16;8.03;;;4.10;;
1775;SDS011;885;42.626;23.200;2022-08-21T05:04:45;7.70;;;3.60;;
1775;SDS011;885;42.626;23.200;2022-08-21T05:07:16;7.57;;;4.43;;
1775;SDS011;885;42.626;23.200;2022-08-21T05:09:46;6.97;;;4.60;;
1775;SDS011;885;42.626;23.200;2022-08-21T05:12:13;8.10;;;3.53;;
1775;SDS011;885;42.626;23.200;2022-08-21T05:14:40;8.83;;;4.90;;
1775;SDS011;885;42.626;23.200;2022-08-21T05:17:08;7.67;;;5.27;;
1775;SDS011;885;42.626;23.200;2022-08-21T05:19:35;6.53;;;4.60;;
1775;SDS011;885;42.626;23.200;2022-08-21T05:22:02;7.57;;;5.10;;
1775;SDS011;885;42.626;23.200;2022-08-21T05:24:30;6.03;;;4.70;;
1775;SDS011;885;42.626;23.200;2022-08-21T05:26:57;9.73;;;5.43;;
1775;SDS011;885;42.626;23.200;2022-08-21T05:29:24;8.43;;;5.23;;
1775;SDS011;885;42.626;23.200;2022-08-21T05:31:51;7.73;;;5.60;;
1775;SDS011;885;42.626;23.200;2022-08-21T05:34:19;9.87;;;7.47;;
1775;SDS011;885;42.626;23.200;2022-08-21T05:36:47;9.20;;;5.10;;
1775;SDS011;885;42.626;23.200;2022-08-21T05:39:14;8.43;;;5.33;;
1775;SDS011;885;42.626;23.200;2022-08-21T05:41:42;6.50;;;3.13;;
1775;SDS011;885;42.626;23.200;2022-08-21T05:44:09;4.10;;;3.67;;
1775;SDS011;885;42.626;23.200;2022-08-21T05:46:35;8.50;;;6.90;;
1775;SDS011;885;42.626;23.200;2022-08-21T05:49:02;7.40;;;5.50;;
1775;SDS011;885;42.626;23.200;2022-08-21T05:51:29;9.23;;;5.90;;
1775;SDS011;885;42.626;23.200;2022-08-21T05:53:56;8.50;;;7.07;;
1775;SDS011;885;42.626;23.200;2022-08-21T05:56:23;10.43;;;6.60;;
1775;SDS011;885;42.626;23.200;2022-08-21T05:58:51;9.97;;;7.17;;
1775;SDS011;885;42.626;23.200;2022-08-21T06:01:18;9.07;;;6.80;;
1775;SDS011;885;42.626;23.200;2022-08-21T06:03:45;7.37;;;5.80;;
1775;SDS011;885;42.626;23.200;2022-08-21T06:06:11;8.57;;;6.00;;
1775;SDS011;885;42.626;23.200;2022-08-21T06:08:38;9.70;;;6.67;;
1775;SDS011;885;42.626;23.200;2022-08-21T06:11:05;9.77;;;6.57;;
1775;SDS011;885;42.626;23.200;2022-08-21T06:13:33;10.63;;;7.13;;
1775;SDS011;885;42.626;23.200;2022-08-21T06:16:03;7.53;;;6.37;;
1775;SDS011;885;42.626;23.200;2022-08-21T06:18:32;11.57;;;7.70;;
1775;SDS011;885;42.626;23.200;2022-08-21T06:20:59;12.07;;;7.03;;
1775;SDS011;885;42.626;23.200;2022-08-21T06:23:25;10.10;;;7.17;;
1775;SDS011;885;42.626;23.200;2022-08-21T06:25:52;14.83;;;6.90;;
1775;SDS011;885;42.626;23.200;2022-08-21T06:28:19;9.73;;;6.70;;
1775;SDS011;885;42.626;23.200;2022-08-21T06:30:46;11.93;;;6.97;;
1775;SDS011;885;42.626;23.200;2022-08-21T06:33:15;8.37;;;6.60;;
1775;SDS011;885;42.626;23.200;2022-08-21T06:35:42;10.33;;;6.90;;
1775;SDS011;885;42.626;23.200;2022-08-21T06:38:08;10.47;;;7.20;;
1775;SDS011;885;42.626;23.200;2022-08-21T06:40:36;9.33;;;6.93;;
1775;SDS011;885;42.626;23.200;2022-08-21T06:43:07;10.53;;;6.80;;
1775;SDS011;885;42.626;23.200;2022-08-21T06:45:35;7.63;;;6.30;;
1775;SDS011;885;42.626;23.200;2022-08-21T06:48:02;8.73;;;5.60;;
1775;SDS011;885;42.626;23.200;2022-08-21T06:50:33;7.83;;;5.17;;
1775;SDS011;885;42.626;23.200;2022-08-21T06:53:01;7.90;;;5.83;;
1775;SDS011;885;42.626;23.200;2022-08-21T06:55:30;10.50;;;5.67;;
1775;SDS011;885;42.626;23.200;2022-08-21T06:57:57;6.63;;;5.90;;
1775;SDS011;885;42.626;23.200;2022-08-21T07:00:24;8.23;;;6.20;;
1775;SDS011;885;42.626;23.200;2022-08-21T07:02:51;8.70;;;5.83;;
1775;SDS011;885;42.626;23.200;2022-08-21T07:05:18;7.50;;;4.40;;
1775;SDS011;885;42.626;23.200;2022-08-21T07:07:46;6.00;;;4.50;;
1775;SDS011;885;42.626;23.200;2022-08-21T07:10:13;11.07;;;4.83;;
1775;SDS011;885;42.626;23.200;2022-08-21T07:12:41;6.70;;;4.37;;
1775;SDS011;885;42.626;23.200;2022-08-21T07:15:08;5.43;;;3.93;;
1775;SDS011;885;42.626;23.200;2022-08-21T07:17:36;7.33;;;4.40;;
1775;SDS011;885;42.626;23.200;2022-08-21T07:20:03;7.53;;;4.73;;
1775;SDS011;885;42.626;23.200;2022-08-21T07:22:30;11.73;;;5.10;;
1775;SDS011;885;42.626;23.200;2022-08-21T07:24:59;5.83;;;4.10;;
1775;SDS011;885;42.626;23.200;2022-08-21T07:27:26;8.67;;;4.87;;
1775;SDS011;885;42.626;23.200;2022-08-21T07:29:52;6.70;;;4.60;;
1775;SDS011;885;42.626;23.200;2022-08-21T07:32:19;8.63;;;4.60;;
1775;SDS011;885;42.626;23.200;2022-08-21T07:34:46;5.47;;;4.47;;
1775;SDS011;885;42.626;23.200;2022-08-21T07:37:13;5.80;;;4.50;;
1775;SDS011;885;42.626;23.200;2022-08-21T07:39:40;5.57;;;4.97;;
1775;SDS011;885;42.626;23.200;2022-08-21T07:42:08;6.53;;;5.30;;
1775;SDS011;885;42.626;23.200;2022-08-21T07:44:35;7.10;;;5.57;;
1775;SDS011;885;42.626;23.200;2022-08-21T07:47:02;11.23;;;5.80;;
1775;SDS011;885;42.626;23.200;2022-08-21T07:49:29;8.37;;;5.30;;
1775;SDS011;885;42.626;23.200;2022-08-21T07:51:56;11.03;;;5.60;;
1775;SDS011;885;42.626;23.200;2022-08-21T07:54:23;7.50;;;6.03;;
1775;SDS011;885;42.626;23.200;2022-08-21T07:56:50;6.80;;;6.20;;
1775;SDS011;885;42.626;23.200;2022-08-21T07:59:18;7.40;;;5.23;;
1775;SDS011;885;42.626;23.200;2022-08-21T08:01:45;9.93;;;5.50;;
1775;SDS011;885;42.626;23.200;2022-08-21T08:04:12;7.63;;;6.07;;
1775;SDS011;885;42.626;23.200;2022-08-21T08:06:40;7.47;;;6.73;;
1775;SDS011;885;42.626;23.200;2022-08-21T08:09:06;12.57;;;6.30;;
1775;SDS011;885;42.626;23.200;2022-08-21T08:11:33;10.57;;;7.30;;
1775;SDS011;885;42.626;23.200;2022-08-21T08:14:00;8.77;;;6.60;;
1775;SDS011;885;42.626;23.200;2022-08-21T08:16:30;8.60;;;6.83;;
1775;SDS011;885;42.626;23.200;2022-08-21T08:18:57;9.50;;;7.10;;
1775;SDS011;885;42.626;23.200;2022-08-21T08:21:23;7.23;;;6.53;;
1775;SDS011;885;42.626;23.200;2022-08-21T08:23:50;7.90;;;6.20;;
1775;SDS011;885;42.626;23.200;2022-08-21T08:26:17;9.53;;;7.50;;
1775;SDS011;885;42.626;23.200;2022-08-21T08:28:44;9.53;;;7.37;;
1775;SDS011;885;42.626;23.200;2022-08-21T08:31:12;10.17;;;7.43;;
1775;SDS011;885;42.626;23.200;2022-08-21T08:33:41;10.53;;;9.53;;
1775;SDS011;885;42.626;23.200;2022-08-21T08:36:12;13.27;;;9.23;;
1775;SDS011;885;42.626;23.200;2022-08-21T08:38:39;10.73;;;8.40;;
1775;SDS011;885;42.626;23.200;2022-08-21T08:41:10;15.70;;;9.90;;
1775;SDS011;885;42.626;23.200;2022-08-21T08:43:39;8.77;;;7.60;;
1775;SDS011;885;42.626;23.200;2022-08-21T08:46:10;13.10;;;8.87;;
1775;SDS011;885;42.626;23.200;2022-08-21T08:48:43;9.23;;;7.47;;
1775;SDS011;885;42.626;23.200;2022-08-21T08:51:15;7.97;;;6.70;;
1775;SDS011;885;42.626;23.200;2022-08-21T08:53:50;11.30;;;6.53;;
1775;SDS011;885;42.626;23.200;2022-08-21T08:56:22;9.07;;;8.10;;
1775;SDS011;885;42.626;23.200;2022-08-21T08:58:53;8.20;;;6.90;;
1775;SDS011;885;42.626;23.200;2022-08-21T09:01:25;8.63;;;6.53;;
1775;SDS011;885;42.626;23.200;2022-08-21T09:03:54;9.53;;;6.87;;
1775;SDS011;885;42.626;23.200;2022-08-21T09:06:27;11.47;;;7.70;;
1775;SDS011;885;42.626;23.200;2022-08-21T09:09:03;10.77;;;7.37;;
1775;SDS011;885;42.626;23.200;2022-08-21T09:11:44;9.43;;;8.20;;
1775;SDS011;885;42.626;23.200;2022-08-21T09:14:16;6.67;;;6.07;;
1775;SDS011;885;42.626;23.200;2022-08-21T09:16:52;10.27;;;7.97;;
1775;SDS011;885;42.626;23.200;2022-08-21T09:19:32;10.80;;;6.80;;
1775;SDS011;885;42.626;23.200;2022-08-21T09:22:13;7.07;;;5.83;;
1775;SDS011;885;42.626;23.200;2022-08-21T09:24:52;6.87;;;5.73;;
1775;SDS011;885;42.626;23.200;2022-08-21T09:27:26;7.63;;;5.90;;
1775;SDS011;885;42.626;23.200;2022-08-21T09:29:55;6.90;;;6.30;;
1775;SDS011;885;42.626;23.200;2022-08-21T09:32:25;7.33;;;6.40;;
1775;SDS011;885;42.626;23.200;2022-08-21T09:34:59;9.17;;;6.60;;
1775;SDS011;885;42.626;23.200;2022-08-21T09:37:28;5.93;;;5.33;;
1775;SDS011;885;42.626;23.200;2022-08-21T09:39:56;7.73;;;6.50;;
1775;SDS011;885;42.626;23.200;2022-08-21T09:42:25;8.53;;;6.37;;
1775;SDS011;885;42.626;23.200;2022-08-21T09:45:07;9.10;;;5.73;;
1775;SDS011;885;42.626;23.200;2022-08-21T09:47:39;7.10;;;5.70;;
1775;SDS011;885;42.626;23.200;2022-08-21T09:50:12;8.07;;;6.53;;
1775;SDS011;885;42.626;23.200;2022-08-21T09:52:46;7.17;;;6.40;;
1775;SDS011;885;42.626;23.200;2022-08-21T09:55:20;7.23;;;5.70;;
1775;SDS011;885;42.626;23.200;2022-08-21T09:58:15;6.93;;;5.60;;
1775;SDS011;885;42.626;23.200;2022-08-21T10:00:43;9.00;;;6.07;;
1775;SDS011;885;42.626;23.200;2022-08-21T10:03:11;7.20;;;6.50;;
1775;SDS011;885;42.626;23.200;2022-08-21T10:05:49;7.97;;;6.37;;
1775;SDS011;885;42.626;23.200;2022-08-21T10:08:18;8.80;;;6.33;;
1775;SDS011;885;42.626;23.200;2022-08-21T10:10:45;6.03;;;5.23;;
1775;SDS011;885;42.626;23.200;2022-08-21T10:13:19;7.23;;;5.80;;
1775;SDS011;885;42.626;23.200;2022-08-21T10:15:54;9.20;;;6.00;;
1775;SDS011;885;42.626;23.200;2022-08-21T10:18:32;7.33;;;5.17;;
1775;SDS011;885;42.626;23.200;2022-08-21T10:21:09;9.43;;;6.23;;
1775;SDS011;885;42.626;23.200;2022-08-21T10:23:48;9.90;;;6.33;;
1775;SDS011;885;42.626;23.200;2022-08-21T10:26:31;8.70;;;6.33;;
1775;SDS011;885;42.626;23.200;2022-08-21T10:29:12;7.60;;;5.30;;
1775;SDS011;885;42.626;23.200;2022-08-21T10:31:52;6.57;;;5.90;;
1775;SDS011;885;42.626;23.200;2022-08-21T10:34:31;7.10;;;5.37;;
1775;SDS011;885;42.626;23.200;2022-08-21T10:37:10;7.00;;;6.20;;
1775;SDS011;885;42.626;23.200;2022-08-21T10:39:52;8.47;;;6.37;;
1775;SDS011;885;42.626;23.200;2022-08-21T10:42:31;10.03;;;6.57;;
1775;SDS011;885;42.626;23.200;2022-08-21T10:45:09;8.77;;;6.67;;
1775;SDS011;885;42.626;23.200;2022-08-21T10:47:42;8.43;;;5.87;;
1775;SDS011;885;42.626;23.200;2022-08-21T10:50:17;7.47;;;5.80;;
1775;SDS011;885;42.626;23.200;2022-08-21T10:53:05;7.33;;;5.70;;
1775;SDS011;885;42.626;23.200;2022-08-21T10:55:43;12.50;;;6.30;;
1775;SDS011;885;42.626;23.200;2022-08-21T10:58:14;8.43;;;6.47;;
1775;SDS011;885;42.626;23.200;2022-08-21T11:00:49;5.90;;;4.73;;
1775;SDS011;885;42.626;23.200;2022-08-21T11:03:21;7.80;;;5.50;;
1775;SDS011;885;42.626;23.200;2022-08-21T11:05:54;5.93;;;5.20;;
1775;SDS011;885;42.626;23.200;2022-08-21T11:08:26;7.20;;;5.63;;
1775;SDS011;885;42.626;23.200;2022-08-21T11:10:59;7.93;;;5.40;;
1775;SDS011;885;42.626;23.200;2022-08-21T11:13:31;8.40;;;6.80;;
1775;SDS011;885;42.626;23.200;2022-08-21T11:16:06;5.23;;;4.73;;
1775;SDS011;885;42.626;23.200;2022-08-21T11:18:44;7.30;;;5.00;;
1775;SDS011;885;42.626;23.200;2022-08-21T11:21:22;8.93;;;5.70;;
1775;SDS011;885;42.626;23.200;2022-08-21T11:23:59;6.33;;;5.40;;
1775;SDS011;885;42.626;23.200;2022-08-21T11:26:30;8.40;;;6.40;;
1775;SDS011;885;42.626;23.200;2022-08-21T11:29:04;8.13;;;4.93;;
1775;SDS011;885;42.626;23.200;2022-08-21T11:31:41;9.10;;;5.50;;
1775;SDS011;885;42.626;23.200;2022-08-21T11:34:21;8.43;;;5.23;;
1775;SDS011;885;42.626;23.200;2022-08-21T11:36:54;5.53;;;5.03;;
1775;SDS011;885;42.626;23.200;2022-08-21T11:39:33;7.20;;;5.43;;
1775;SDS011;885;42.626;23.200;2022-08-21T11:42:11;5.87;;;5.03;;
1775;SDS011;885;42.626;23.200;2022-08-21T11:44:47;6.33;;;5.10;;
1775;SDS011;885;42.626;23.200;2022-08-21T11:47:22;7.70;;;5.70;;
1775;SDS011;885;42.626;23.200;2022-08-21T11:50:00;6.77;;;5.80;;
1775;SDS011;885;42.626;23.200;2022-08-21T11:52:40;5.40;;;4.67;;
1775;SDS011;885;42.626;23.200;2022-08-21T11:55:13;8.03;;;5.30;;
1775;SDS011;885;42.626;23.200;2022-08-21T11:57:46;5.70;;;5.07;;
1775;SDS011;885;42.626;23.200;2022-08-21T12:00:22;8.00;;;4.87;;
1775;SDS011;885;42.626;23.200;2022-08-21T12:02:53;7.60;;;6.13;;
1775;SDS011;885;42.626;23.200;2022-08-21T12:05:28;7.47;;;5.77;;
1775;SDS011;885;42.626;23.200;2022-08-21T12:08:04;7.50;;;5.80;;
1775;SDS011;885;42.626;23.200;2022-08-21T12:10:35;5.80;;;5.20;;
1775;SDS011;885;42.626;23.200;2022-08-21T12:13:09;6.33;;;5.73;;
1775;SDS011;885;42.626;23.200;2022-08-21T12:15:38;10.50;;;5.60;;
1775;SDS011;885;42.626;23.200;2022-08-21T12:18:07;6.27;;;5.47;;
1775;SDS011;885;42.626;23.200;2022-08-21T12:20:56;9.07;;;5.83;;
1775;SDS011;885;42.626;23.200;2022-08-21T12:23:28;10.10;;;5.60;;
1775;SDS011;885;42.626;23.200;2022-08-21T12:26:10;6.60;;;5.83;;
1775;SDS011;885;42.626;23.200;2022-08-21T12:28:44;9.20;;;5.80;;
1775;SDS011;885;42.626;23.200;2022-08-21T12:31:21;6.63;;;5.93;;
1775;SDS011;885;42.626;23.200;2022-08-21T12:33:54;8.20;;;5.40;;
1775;SDS011;885;42.626;23.200;2022-08-21T12:36:24;5.97;;;4.90;;
1775;SDS011;885;42.626;23.200;2022-08-21T12:38:57;7.50;;;5.60;;
1775;SDS011;885;42.626;23.200;2022-08-21T12:41:33;7.50;;;5.47;;
1775;SDS011;885;42.626;23.200;2022-08-21T12:44:12;11.60;;;5.60;;
1775;SDS011;885;42.626;23.200;2022-08-21T12:46:44;10.17;;;5.60;;
1775;SDS011;885;42.626;23.200;2022-08-21T12:49:14;7.50;;;5.50;;
1775;SDS011;885;42.626;23.200;2022-08-21T12:51:50;7.30;;;5.03;;
1775;SDS011;885;42.626;23.200;2022-08-21T12:54:21;6.80;;;5.30;;
1775;SDS011;885;42.626;23.200;2022-08-21T12:56:59;9.13;;;6.00;;
1775;SDS011;885;42.626;23.200;2022-08-21T12:59:29;7.13;;;5.83;;
1775;SDS011;885;42.626;23.200;2022-08-21T13:01:58;7.57;;;5.27;;
1775;SDS011;885;42.626;23.200;2022-08-21T13:04:32;6.63;;;5.90;;
1775;SDS011;885;42.626;23.200;2022-08-21T13:07:05;7.30;;;5.17;;
1775;SDS011;885;42.626;23.200;2022-08-21T13:09:36;7.50;;;5.23;;
1775;SDS011;885;42.626;23.200;2022-08-21T13:12:11;5.73;;;5.20;;
1775;SDS011;885;42.626;23.200;2022-08-21T13:14:39;5.80;;;5.30;;
1775;SDS011;885;42.626;23.200;2022-08-21T13:17:09;8.93;;;5.63;;
1775;SDS011;885;42.626;23.200;2022-08-21T13:19:37;5.63;;;5.13;;
1775;SDS011;885;42.626;23.200;2022-08-21T13:22:05;6.50;;;5.07;;
1775;SDS011;885;42.626;23.200;2022-08-21T13:24:39;7.47;;;5.77;;
1775;SDS011;885;42.626;23.200;2022-08-21T13:27:16;8.50;;;5.23;;
1775;SDS011;885;42.626;23.200;2022-08-21T13:29:44;7.70;;;4.80;;
1775;SDS011;885;42.626;23.200;2022-08-21T13:32:16;6.33;;;4.83;;
1775;SDS011;885;42.626;23.200;2022-08-21T13:34:49;5.87;;;5.33;;
1775;SDS011;885;42.626;23.200;2022-08-21T13:37:16;6.90;;;6.17;;
1775;SDS011;885;42.626;23.200;2022-08-21T13:39:48;7.43;;;5.20;;
1775;SDS011;885;42.626;23.200;2022-08-21T13:42:17;7.60;;;5.40;;
1775;SDS011;885;42.626;23.200;2022-08-21T13:44:46;5.40;;;4.50;;
1775;SDS011;885;42.626;23.200;2022-08-21T13:47:15;7.23;;;4.90;;
1775;SDS011;885;42.626;23.200;2022-08-21T13:49:43;4.90;;;4.50;;
1775;SDS011;885;42.626;23.200;2022-08-21T13:52:15;6.87;;;4.60;;
1775;SDS011;885;42.626;23.200;2022-08-21T13:54:51;7.33;;;4.97;;
1775;SDS011;885;42.626;23.200;2022-08-21T13:57:25;7.93;;;4.80;;
1775;SDS011;885;42.626;23.200;2022-08-21T13:59:53;7.70;;;5.20;;
1775;SDS011;885;42.626;23.200;2022-08-21T14:02:37;7.90;;;5.13;;
1775;SDS011;885;42.626;23.200;2022-08-21T14:05:06;5.33;;;4.50;;
1775;SDS011;885;42.626;23.200;2022-08-21T14:07:42;7.97;;;5.43;;
1775;SDS011;885;42.626;23.200;2022-08-21T14:10:12;7.53;;;5.67;;
1775;SDS011;885;42.626;23.200;2022-08-21T14:12:44;7.90;;;5.20;;
1775;SDS011;885;42.626;23.200;2022-08-21T14:15:15;5.70;;;5.20;;
1775;SDS011;885;42.626;23.200;2022-08-21T14:17:44;7.90;;;5.10;;
1775;SDS011;885;42.626;23.200;2022-08-21T14:20:13;7.80;;;5.30;;
1775;SDS011;885;42.626;23.200;2022-08-21T14:22:53;6.60;;;4.90;;
1775;SDS011;885;42.626;23.200;2022-08-21T14:25:28;9.07;;;5.30;;
1775;SDS011;885;42.626;23.200;2022-08-21T14:28:07;6.43;;;5.63;;
1775;SDS011;885;42.626;23.200;2022-08-21T14:30:42;6.47;;;5.00;;
1775;SDS011;885;42.626;23.200;2022-08-21T14:33:10;7.90;;;5.60;;
1775;SDS011;885;42.626;23.200;2022-08-21T14:35:39;5.37;;;4.87;;
1775;SDS011;885;42.626;23.200;2022-08-21T14:38:11;6.80;;;5.30;;
1775;SDS011;885;42.626;23.200;2022-08-21T14:40:46;6.27;;;4.90;;
1775;SDS011;885;42.626;23.200;2022-08-21T14:43:17;6.83;;;5.87;;
1775;SDS011;885;42.626;23.200;2022-08-21T14:45:45;6.67;;;5.97;;
1775;SDS011;885;42.626;23.200;2022-08-21T14:48:13;9.93;;;5.40;;
1775;SDS011;885;42.626;23.200;2022-08-21T14:50:40;6.10;;;5.20;;
1775;SDS011;885;42.626;23.200;2022-08-21T14:53:07;9.23;;;5.40;;
1775;SDS011;885;42.626;23.200;2022-08-21T14:55:34;6.67;;;5.93;;
1775;SDS011;885;42.626;23.200;2022-08-21T14:58:23;6.53;;;5.80;;
1775;SDS011;885;42.626;23.200;2022-08-21T15:00:51;11.70;;;6.20;;
1775;SDS011;885;42.626;23.200;2022-08-21T15:03:20;9.43;;;7.07;;
1775;SDS011;885;42.626;23.200;2022-08-21T15:05:47;9.27;;;7.57;;
1775;SDS011;885;42.626;23.200;2022-08-21T15:08:14;10.73;;;9.03;;
1775;SDS011;885;42.626;23.200;2022-08-21T15:10:41;9.20;;;8.30;;
1775;SDS011;885;42.626;23.200;2022-08-21T15:13:09;10.00;;;8.37;;
1775;SDS011;885;42.626;23.200;2022-08-21T15:15:39;8.80;;;7.90;;
1775;SDS011;885;42.626;23.200;2022-08-21T15:18:08;9.83;;;8.33;;
1775;SDS011;885;42.626;23.200;2022-08-21T15:20:37;10.50;;;8.40;;
1775;SDS011;885;42.626;23.200;2022-08-21T15:23:05;8.50;;;7.70;;
1775;SDS011;885;42.626;23.200;2022-08-21T15:25:33;11.53;;;8.53;;
1775;SDS011;885;42.626;23.200;2022-08-21T15:28:01;8.80;;;7.60;;
1775;SDS011;885;42.626;23.200;2022-08-21T15:30:29;11.83;;;7.20;;